Time;durP1;ratioP1;P1;durP2;ratioP2;P2;SDS_P1;SDS_P2;PMS_P1;PMS_P2;Temp;Humidity;BMP_temperature;BMP_pressure;BME280_temperature;BME280_humidity;BME280_pressure;Samples;Min_cycle;Max_cycle;Signal;HPM_P1;HPM_P2
2021/03/10 00:00:24;;;;;;;23.08;15.80;;;4.60;67.90;;;;;;5157452;27;20637;-82
2021/03/10 00:02:51;;;;;;;25.48;16.60;;;4.60;68.30;;;;;;5157958;27;20223;-80
2021/03/10 00:05:18;;;;;;;26.92;18.88;;;4.60;68.40;;;;;;5157386;27;20269;-81
2021/03/10 00:07:45;;;;;;;23.13;16.00;;;4.60;67.50;;;;;;5157580;27;20563;-81
2021/03/10 00:10:13;;;;;;;26.30;16.95;;;4.50;68.20;;;;;;5157451;27;20187;-81
2021/03/10 00:12:41;;;;;;;25.25;17.55;;;4.40;68.20;;;;;;5157657;27;20548;-80
2021/03/10 00:15:10;;;;;;;25.98;19.00;;;4.50;68.30;;;;;;5156843;27;20183;-81
2021/03/10 00:17:37;;;;;;;26.27;17.17;;;4.50;68.60;;;;;;5157773;27;20187;-82
2021/03/10 00:20:05;;;;;;;26.10;16.23;;;4.50;68.80;;;;;;5157175;27;20197;-81
2021/03/10 00:22:32;;;;;;;23.85;15.48;;;4.50;68.80;;;;;;5157500;27;20195;-81
2021/03/10 00:24:59;;;;;;;26.98;18.50;;;4.50;68.60;;;;;;5157160;27;20187;-81
2021/03/10 00:27:25;;;;;;;22.05;16.67;;;4.60;68.50;;;;;;5157279;27;20212;-81
2021/03/10 00:29:54;;;;;;;23.20;17.25;;;4.60;68.40;;;;;;5157022;27;20194;-81
2021/03/10 00:32:22;;;;;;;24.70;18.50;;;4.60;68.70;;;;;;5156593;27;20251;-82
2021/03/10 00:34:48;;;;;;;24.15;17.33;;;4.70;68.70;;;;;;5157367;27;20637;-82
2021/03/10 00:37:16;;;;;;;24.15;17.25;;;4.70;68.50;;;;;;5156781;27;20183;-79
2021/03/10 00:39:43;;;;;;;25.70;17.67;;;4.70;68.60;;;;;;5157130;27;20244;-81
2021/03/10 00:42:28;;;;;;;25.45;18.58;;;4.70;69.10;;;;;;5156536;27;20190;-80
2021/03/10 00:44:56;;;;;;;26.67;19.00;;;4.70;69.00;;;;;;5157072;27;20191;-80
2021/03/10 00:47:26;;;;;;;23.27;17.25;;;4.70;69.90;;;;;;5156775;27;20240;-82
2021/03/10 00:49:58;;;;;;;27.83;20.67;;;4.70;69.40;;;;;;5156959;27;20214;-81
2021/03/10 00:52:24;;;;;;;23.85;18.05;;;4.60;68.90;;;;;;5156638;27;20532;-81
2021/03/10 00:54:56;;;;;;;23.42;17.38;;;4.60;69.30;;;;;;5156899;27;20541;-83
2021/03/10 00:57:23;;;;;;;25.75;18.23;;;4.60;69.70;;;;;;5135871;27;20187;-81
2021/03/10 00:59:49;;;;;;;24.55;17.73;;;4.60;69.50;;;;;;5136247;27;20187;-82
2021/03/10 01:02:17;;;;;;;26.10;18.02;;;4.60;69.70;;;;;;5135352;27;20188;-80
2021/03/10 01:04:43;;;;;;;23.48;17.05;;;4.60;70.10;;;;;;5135701;27;20226;-80
2021/03/10 01:07:10;;;;;;;23.40;18.15;;;4.60;70.90;;;;;;5135444;27;20187;-81
2021/03/10 01:09:37;;;;;;;26.88;17.45;;;4.60;70.70;;;;;;5135009;27;20215;-81
2021/03/10 01:12:05;;;;;;;23.58;15.70;;;4.50;70.30;;;;;;5135181;27;20191;-80
2021/03/10 01:14:40;;;;;;;25.48;18.45;;;4.60;71.50;;;;;;5135668;27;20191;-81
2021/03/10 01:17:07;;;;;;;25.17;18.13;;;4.50;71.00;;;;;;5135256;27;20187;-81
2021/03/10 01:20:03;;;;;;;25.67;17.70;;;4.50;71.50;;;;;;5135645;27;20199;-81
2021/03/10 01:22:30;;;;;;;22.95;17.30;;;4.60;71.50;;;;;;5111682;27;20213;-81
2021/03/10 01:24:56;;;;;;;24.17;17.75;;;4.40;71.10;;;;;;5135575;27;20651;-81
2021/03/10 01:27:24;;;;;;;25.08;17.30;;;4.40;71.20;;;;;;5135151;27;20195;-80
2021/03/10 01:29:51;;;;;;;23.77;18.27;;;4.40;72.00;;;;;;5135351;27;20348;-81
2021/03/10 01:32:18;;;;;;;25.70;18.73;;;4.30;72.10;;;;;;5134725;27;20180;-81
2021/03/10 01:34:46;;;;;;;25.45;17.63;;;4.20;72.60;;;;;;5135381;27;20745;-81
2021/03/10 01:37:12;;;;;;;28.92;17.92;;;4.20;72.60;;;;;;5135214;27;20199;-81
2021/03/10 01:39:39;;;;;;;26.98;19.00;;;4.20;73.30;;;;;;5135287;27;20192;-80
2021/03/10 01:42:07;;;;;;;25.60;18.77;;;4.20;73.40;;;;;;5134783;27;20272;-81
2021/03/10 01:44:34;;;;;;;27.95;18.88;;;4.20;73.50;;;;;;5134956;27;20199;-81
2021/03/10 01:47:03;;;;;;;29.83;19.48;;;4.20;73.00;;;;;;5134841;27;20191;-81
2021/03/10 01:52:19;;;;;;;22.80;18.85;;;4.20;73.40;;;;;;5107138;28;20222;-81
2021/03/10 01:54:55;;;;;;;27.15;18.92;;;4.30;73.80;;;;;;5115087;27;20192;-81
2021/03/10 01:57:22;;;;;;;29.00;20.65;;;4.30;73.90;;;;;;5135022;27;20183;-80
2021/03/10 02:00:28;;;;;;;34.17;22.02;;;4.30;73.90;;;;;;5134599;27;20195;-81
2021/03/10 02:02:55;;;;;;;33.50;20.67;;;4.30;73.40;;;;;;5113956;28;20231;-81
2021/03/10 02:05:24;;;;;;;31.50;23.00;;;4.20;73.80;;;;;;5118508;27;20192;-81
2021/03/10 02:08:27;;;;;;;31.10;21.70;;;4.30;74.20;;;;;;5134734;27;20215;-80
2021/03/10 02:11:22;;;;;;;32.60;21.90;;;4.30;75.00;;;;;;5101584;27;20213;-80
2021/03/10 02:13:58;;;;;;;27.55;20.00;;;4.20;75.00;;;;;;5134564;27;20244;-80
2021/03/10 02:16:32;;;;;;;28.33;21.33;;;4.20;75.50;;;;;;5134149;27;20195;-80
2021/03/10 02:19:03;;;;;;;33.47;23.35;;;4.20;74.70;;;;;;5134805;27;20541;-80
2021/03/10 02:21:41;;;;;;;32.80;22.90;;;4.20;74.70;;;;;;5132939;27;20184;-80
2021/03/10 02:24:27;;;;;;;33.30;23.30;;;4.10;75.90;;;;;;5134435;27;20195;-79
2021/03/10 02:27:31;;;;;;;35.13;23.50;;;4.00;76.00;;;;;;5133731;27;20187;-80
2021/03/10 02:30:02;;;;;;;32.90;22.92;;;4.00;76.70;;;;;;5133859;27;20258;-81
2021/03/10 02:32:29;;;;;;;32.65;22.13;;;4.10;77.10;;;;;;5134275;27;20192;-80
2021/03/10 02:34:57;;;;;;;37.80;24.67;;;4.10;76.50;;;;;;5133688;27;20261;-81
2021/03/10 02:37:27;;;;;;;36.92;23.65;;;4.20;76.10;;;;;;5134365;27;20195;-80
2021/03/10 02:39:54;;;;;;;36.35;22.73;;;4.20;75.90;;;;;;5133697;27;20180;-79
2021/03/10 02:42:20;;;;;;;35.25;23.83;;;4.20;75.90;;;;;;5133999;27;20210;-81
2021/03/10 02:44:47;;;;;;;31.38;22.63;;;4.30;75.80;;;;;;5133513;27;20184;-81
2021/03/10 02:47:16;;;;;;;31.10;23.00;;;4.30;75.60;;;;;;5134168;27;20210;-80
2021/03/10 02:49:44;;;;;;;37.75;26.00;;;4.30;75.50;;;;;;5133786;27;20703;-80
2021/03/10 02:52:11;;;;;;;35.20;24.75;;;4.40;75.40;;;;;;5133930;27;20188;-80
2021/03/10 02:54:39;;;;;;;29.30;22.15;;;4.50;75.40;;;;;;5133348;27;20187;-80
2021/03/10 02:57:06;;;;;;;32.30;22.73;;;4.50;75.40;;;;;;5133560;27;20188;-80
2021/03/10 02:59:32;;;;;;;32.97;22.52;;;4.60;74.90;;;;;;5133601;27;20221;-80
2021/03/10 03:01:59;;;;;;;33.85;23.00;;;4.60;74.30;;;;;;5133338;27;20638;-81
2021/03/10 03:04:26;;;;;;;34.05;24.98;;;4.60;74.10;;;;;;5133612;27;20219;-80
2021/03/10 03:06:53;;;;;;;32.47;22.83;;;4.70;74.20;;;;;;5132647;27;20183;-81
2021/03/10 03:09:20;;;;;;;35.42;24.80;;;4.70;74.10;;;;;;5133404;27;20274;-82
2021/03/10 03:11:47;;;;;;;38.05;26.02;;;4.70;73.60;;;;;;5133084;27;20583;-80
2021/03/10 03:14:16;;;;;;;33.05;24.40;;;4.70;73.60;;;;;;5133676;27;20542;-79
2021/03/10 03:16:44;;;;;;;34.67;23.55;;;4.70;73.80;;;;;;5133204;27;20192;-79
2021/03/10 03:19:11;;;;;;;33.78;24.75;;;4.70;73.80;;;;;;5133646;27;20191;-81
2021/03/10 03:21:39;;;;;;;33.35;24.35;;;4.70;73.40;;;;;;5132861;27;20237;-80
2021/03/10 03:24:07;;;;;;;34.78;23.10;;;4.80;73.40;;;;;;5133544;27;20195;-81
2021/03/10 03:26:35;;;;;;;37.17;26.42;;;4.80;73.60;;;;;;5133519;27;20661;-81
2021/03/10 03:29:02;;;;;;;35.85;24.30;;;4.80;73.40;;;;;;5132913;28;20693;-81
2021/03/10 03:31:31;;;;;;;34.70;24.88;;;4.80;73.90;;;;;;5133127;27;20661;-81
2021/03/10 03:33:59;;;;;;;32.90;22.60;;;4.80;73.40;;;;;;5136111;27;20187;-81
2021/03/10 03:36:26;;;;;;;31.45;23.15;;;4.80;74.10;;;;;;5137177;27;20556;-81
2021/03/10 03:38:54;;;;;;;32.80;21.95;;;4.80;74.00;;;;;;5137787;27;20198;-83
2021/03/10 03:41:22;;;;;;;38.75;24.20;;;4.80;73.80;;;;;;5137633;27;20191;-81
2021/03/10 03:43:49;;;;;;;35.13;22.17;;;4.80;73.70;;;;;;5137121;27;20192;-81
2021/03/10 03:46:16;;;;;;;32.88;21.85;;;4.80;73.40;;;;;;5137039;27;20645;-81
2021/03/10 03:48:42;;;;;;;29.10;21.45;;;4.80;74.10;;;;;;5137496;27;20626;-82
2021/03/10 03:51:25;;;;;;;36.17;23.30;;;4.70;73.50;;;;;;5136841;27;20194;-82
2021/03/10 03:54:00;;;;;;;32.65;20.85;;;4.80;74.30;;;;;;5137549;27;20196;-81
2021/03/10 03:56:27;;;;;;;31.67;22.60;;;4.70;73.70;;;;;;5136885;27;20187;-81
2021/03/10 03:58:54;;;;;;;28.23;20.92;;;4.80;74.10;;;;;;5136824;27;20183;-81
2021/03/10 04:01:21;;;;;;;35.20;23.85;;;4.80;74.20;;;;;;5137182;27;20195;-81
2021/03/10 04:03:48;;;;;;;31.23;23.35;;;4.80;73.90;;;;;;5137334;27;20688;-80
2021/03/10 04:06:15;;;;;;;31.63;23.10;;;4.70;74.00;;;;;;5136569;27;20180;-81
2021/03/10 04:08:43;;;;;;;30.55;21.20;;;4.70;73.90;;;;;;5137036;27;20544;-82
2021/03/10 04:11:13;;;;;;;30.30;22.90;;;4.70;74.10;;;;;;5137015;27;20248;-82
2021/03/10 04:13:39;;;;;;;32.45;23.60;;;4.80;74.20;;;;;;5137289;27;20192;-81
2021/03/10 04:16:07;;;;;;;26.90;20.92;;;4.70;74.20;;;;;;5137124;27;20280;-81
2021/03/10 04:18:34;;;;;;;33.33;23.17;;;4.70;74.50;;;;;;5137005;27;20215;-82
2021/03/10 04:21:01;;;;;;;38.35;24.60;;;4.70;74.40;;;;;;5136524;27;20202;-81
2021/03/10 04:23:27;;;;;;;33.97;22.25;;;4.70;74.90;;;;;;5136919;27;20195;-82
2021/03/10 04:25:53;;;;;;;32.42;21.42;;;4.70;75.60;;;;;;5136794;27;20188;-81
2021/03/10 04:28:21;;;;;;;31.95;21.90;;;4.60;75.20;;;;;;5136924;27;20255;-80
2021/03/10 04:30:48;;;;;;;36.33;24.83;;;4.70;74.90;;;;;;5136504;27;20183;-81
2021/03/10 04:33:14;;;;;;;35.40;24.73;;;4.70;74.60;;;;;;5136765;27;20187;-80
2021/03/10 04:35:41;;;;;;;34.15;23.45;;;4.70;74.40;;;;;;5135913;27;20271;-80
2021/03/10 04:38:07;;;;;;;34.40;22.83;;;4.80;74.30;;;;;;5136299;27;20591;-81
2021/03/10 04:40:34;;;;;;;33.20;23.98;;;4.80;74.10;;;;;;5136216;27;20187;-81
2021/03/10 04:43:01;;;;;;;38.15;23.05;;;4.80;73.50;;;;;;5136727;27;20192;-82
2021/03/10 04:45:28;;;;;;;30.00;21.83;;;4.80;73.60;;;;;;5135140;27;20199;-80
2021/03/10 04:47:55;;;;;;;30.85;22.58;;;4.80;72.90;;;;;;5136220;27;20720;-81
2021/03/10 04:50:21;;;;;;;37.63;23.38;;;4.90;72.20;;;;;;5136069;27;20191;-79
2021/03/10 04:52:48;;;;;;;33.35;21.25;;;4.80;72.20;;;;;;5136532;27;20260;-81
2021/03/10 04:55:15;;;;;;;35.75;26.05;;;4.70;72.40;;;;;;5136053;27;20209;-80
2021/03/10 04:57:41;;;;;;;35.00;23.90;;;4.70;73.10;;;;;;5136112;27;20219;-81
2021/03/10 05:00:10;;;;;;;34.47;23.88;;;4.70;73.30;;;;;;5135789;27;20624;-80
2021/03/10 05:02:38;;;;;;;33.35;22.38;;;4.60;73.10;;;;;;5135486;27;20256;-81
2021/03/10 05:05:07;;;;;;;30.05;22.60;;;4.70;73.00;;;;;;5135873;27;20213;-81
2021/03/10 05:07:34;;;;;;;31.65;21.83;;;4.70;72.20;;;;;;5136172;27;20995;-80
2021/03/10 05:10:00;;;;;;;29.38;21.17;;;4.70;72.60;;;;;;5134699;27;20696;-80
2021/03/10 05:12:30;;;;;;;30.17;21.67;;;4.70;72.80;;;;;;5136007;27;20232;-80
2021/03/10 05:14:57;;;;;;;30.17;22.10;;;4.70;73.00;;;;;;5135725;27;20187;-81
2021/03/10 05:17:25;;;;;;;32.97;23.48;;;4.80;73.50;;;;;;5136048;27;20556;-79
2021/03/10 05:19:52;;;;;;;37.28;24.67;;;4.80;74.10;;;;;;5135320;27;20191;-80
2021/03/10 05:22:19;;;;;;;29.92;21.40;;;4.80;74.60;;;;;;5135883;27;20195;-79
2021/03/10 05:24:46;;;;;;;30.73;23.50;;;4.80;74.60;;;;;;5135359;27;20188;-80
2021/03/10 05:27:13;;;;;;;30.67;22.27;;;4.80;74.50;;;;;;5135831;27;20252;-80
2021/03/10 05:29:39;;;;;;;35.05;26.02;;;4.90;74.30;;;;;;5135143;27;20219;-81
2021/03/10 05:32:06;;;;;;;37.15;22.95;;;4.90;74.00;;;;;;5135477;27;20198;-81
2021/03/10 05:34:33;;;;;;;31.95;24.05;;;4.80;73.70;;;;;;5135218;27;20203;-81
2021/03/10 05:37:01;;;;;;;32.97;23.38;;;4.70;74.20;;;;;;5135493;27;20192;-80
2021/03/10 05:39:27;;;;;;;32.42;23.45;;;4.70;74.50;;;;;;5135129;27;20191;-79
2021/03/10 05:41:56;;;;;;;35.90;24.60;;;4.70;74.50;;;;;;5134747;27;20702;-79
2021/03/10 05:44:24;;;;;;;33.72;23.02;;;4.70;74.60;;;;;;5134809;27;20191;-78
2021/03/10 05:46:50;;;;;;;35.38;26.00;;;4.70;74.50;;;;;;5135526;27;20301;-78
2021/03/10 05:49:17;;;;;;;32.60;22.38;;;4.70;75.00;;;;;;5135213;27;20208;-77
2021/03/10 05:51:43;;;;;;;36.67;24.35;;;4.60;75.20;;;;;;5134421;27;20180;-78
2021/03/10 05:54:13;;;;;;;38.15;24.70;;;4.60;75.20;;;;;;5134230;27;20667;-78
2021/03/10 05:56:42;;;;;;;36.05;23.77;;;4.60;75.60;;;;;;5132566;27;20195;-78
2021/03/10 05:59:09;;;;;;;33.22;23.45;;;4.60;75.30;;;;;;5134815;27;20283;-80
2021/03/10 06:01:36;;;;;;;34.03;23.80;;;4.50;75.60;;;;;;5129934;27;20282;-80
2021/03/10 06:04:04;;;;;;;34.08;23.15;;;4.50;76.10;;;;;;5133908;27;20243;-80
2021/03/10 06:06:35;;;;;;;38.80;22.33;;;4.50;76.50;;;;;;5133396;27;20188;-80
2021/03/10 06:09:11;;;;;;;37.85;24.58;;;4.60;76.20;;;;;;5133663;27;20254;-79
2021/03/10 06:11:38;;;;;;;33.65;23.52;;;4.60;76.20;;;;;;5134061;27;20210;-80
2021/03/10 06:14:15;;;;;;;32.80;22.40;;;4.50;75.90;;;;;;5132750;27;20188;-80
2021/03/10 06:16:41;;;;;;;34.83;23.52;;;4.50;76.10;;;;;;5133038;27;20225;-80
2021/03/10 06:19:08;;;;;;;33.42;22.45;;;4.50;76.30;;;;;;5133752;27;20199;-80
2021/03/10 06:21:35;;;;;;;38.72;24.65;;;4.50;76.50;;;;;;5133404;27;20184;-85
2021/03/10 06:24:04;;;;;;;32.30;24.08;;;4.50;76.20;;;;;;5133839;27;20563;-78
2021/03/10 06:26:33;;;;;;;34.17;23.85;;;4.50;76.50;;;;;;5134303;27;20191;-81
2021/03/10 06:29:01;;;;;;;40.58;25.20;;;4.50;76.70;;;;;;5126554;27;20215;-79
2021/03/10 06:31:31;;;;;;;33.92;24.77;;;4.50;76.60;;;;;;5133883;27;20192;-82
2021/03/10 06:34:03;;;;;;;37.47;24.55;;;4.40;76.20;;;;;;5134703;27;20192;-84
2021/03/10 06:36:31;;;;;;;34.47;25.67;;;4.30;77.50;;;;;;5134108;27;20536;-79
2021/03/10 06:38:58;;;;;;;33.63;24.13;;;4.30;77.60;;;;;;5133904;27;20230;-79
2021/03/10 06:41:33;;;;;;;33.90;23.60;;;4.30;77.80;;;;;;5133719;27;20184;-79
2021/03/10 06:44:01;;;;;;;34.65;25.05;;;4.40;77.90;;;;;;5121959;27;20197;-78
2021/03/10 06:46:28;;;;;;;34.30;25.83;;;4.40;77.60;;;;;;5124498;27;20194;-80
2021/03/10 06:49:00;;;;;;;38.83;28.10;;;4.50;77.90;;;;;;5123909;27;20580;-80
2021/03/10 06:51:28;;;;;;;34.65;24.58;;;4.50;77.60;;;;;;5126215;27;20561;-79
2021/03/10 06:53:55;;;;;;;37.42;25.02;;;4.50;77.30;;;;;;5124750;27;20184;-81
2021/03/10 06:56:25;;;;;;;38.42;26.65;;;4.60;77.50;;;;;;5128029;27;20200;-81
2021/03/10 06:59:03;;;;;;;41.38;26.40;;;4.70;77.70;;;;;;5119993;27;20184;-80
2021/03/10 07:01:38;;;;;;;33.00;25.17;;;4.80;77.30;;;;;;5122872;27;20555;-82
2021/03/10 07:04:06;;;;;;;37.78;25.83;;;4.80;76.80;;;;;;5123365;27;20211;-80
2021/03/10 07:06:34;;;;;;;30.45;23.00;;;4.80;77.20;;;;;;5127981;27;20597;-80
2021/03/10 07:09:04;;;;;;;27.67;20.92;;;4.90;76.40;;;;;;5122864;27;20276;-81
2021/03/10 07:11:32;;;;;;;29.77;21.45;;;5.00;75.90;;;;;;5123033;27;20291;-81
2021/03/10 07:14:00;;;;;;;29.83;20.98;;;5.00;76.30;;;;;;5123352;27;20196;-81
2021/03/10 07:16:32;;;;;;;34.10;23.13;;;5.00;76.00;;;;;;5124473;27;20602;-76
2021/03/10 07:18:59;;;;;;;34.28;23.02;;;5.10;75.80;;;;;;5120363;27;20192;-79
2021/03/10 07:21:30;;;;;;;32.13;20.70;;;5.10;76.00;;;;;;5125513;27;20582;-77
2021/03/10 07:24:00;;;;;;;31.27;21.40;;;5.10;75.70;;;;;;5120478;27;20200;-78
2021/03/10 07:26:27;;;;;;;27.00;19.80;;;5.20;75.70;;;;;;5120175;27;20234;-77
2021/03/10 07:29:00;;;;;;;26.65;21.30;;;5.30;75.30;;;;;;5119328;27;20295;-78
2021/03/10 07:31:28;;;;;;;33.10;20.85;;;5.30;73.60;;;;;;5116011;28;20192;-77
2021/03/10 07:33:56;;;;;;;25.58;18.25;;;5.40;73.70;;;;;;5122531;28;20198;-80
2021/03/10 07:36:38;;;;;;;32.72;21.15;;;5.40;74.10;;;;;;5124612;27;20192;-78
2021/03/10 07:39:07;;;;;;;29.65;23.15;;;5.40;73.30;;;;;;5124862;28;20234;-78
2021/03/10 07:41:35;;;;;;;33.45;26.25;;;5.40;73.40;;;;;;5131892;27;20253;-78
2021/03/10 07:44:02;;;;;;;38.17;23.08;;;5.40;73.20;;;;;;5131948;27;20319;-78
2021/03/10 07:46:34;;;;;;;28.63;21.05;;;5.30;73.60;;;;;;5122027;28;20619;-78
2021/03/10 07:49:02;;;;;;;26.85;22.23;;;5.30;74.00;;;;;;5114926;28;20223;-78
2021/03/10 07:51:31;;;;;;;31.13;20.92;;;5.40;74.30;;;;;;5121360;27;20245;-77
2021/03/10 07:53:59;;;;;;;29.48;21.27;;;5.50;75.10;;;;;;5112397;27;20295;-78
2021/03/10 07:56:30;;;;;;;33.58;22.60;;;5.50;74.70;;;;;;5115171;28;20224;-78
2021/03/10 07:59:12;;;;;;;36.60;23.00;;;5.60;74.10;;;;;;5113054;28;20200;-77
2021/03/10 08:01:40;;;;;;;36.35;23.17;;;5.60;74.10;;;;;;5113468;27;20196;-77
2021/03/10 08:04:14;;;;;;;28.45;20.92;;;5.70;74.70;;;;;;5113443;28;20327;-77
2021/03/10 08:06:48;;;;;;;28.80;21.30;;;5.80;74.00;;;;;;5114794;27;20196;-77
2021/03/10 08:09:18;;;;;;;29.27;19.60;;;5.80;73.50;;;;;;5112746;28;20728;-79
2021/03/10 08:11:46;;;;;;;27.35;21.23;;;5.90;73.20;;;;;;5111551;28;20201;-78
2021/03/10 08:14:16;;;;;;;28.02;20.63;;;6.00;73.90;;;;;;5112548;28;20557;-80
2021/03/10 08:16:48;;;;;;;30.65;22.30;;;6.00;72.60;;;;;;5112941;28;20607;-79
2021/03/10 08:19:20;;;;;;;33.67;24.08;;;6.10;73.10;;;;;;5113485;27;20200;-79
2021/03/10 08:21:50;;;;;;;32.33;22.88;;;6.10;72.90;;;;;;5115861;28;20231;-80
2021/03/10 08:24:17;;;;;;;29.67;22.08;;;6.20;73.00;;;;;;5118186;27;20730;-81
2021/03/10 08:26:50;;;;;;;29.60;22.92;;;6.20;73.50;;;;;;5123032;27;20184;-80
2021/03/10 08:29:17;;;;;;;30.63;21.45;;;6.20;73.00;;;;;;5121865;27;20352;-79
2021/03/10 08:31:53;;;;;;;25.52;20.95;;;6.20;73.20;;;;;;5116171;27;20196;-80
2021/03/10 08:34:37;;;;;;;30.08;22.08;;;6.30;73.40;;;;;;5122592;27;20527;-79
2021/03/10 08:37:05;;;;;;;27.33;21.67;;;6.30;73.10;;;;;;5120123;27;20300;-79
2021/03/10 08:39:33;;;;;;;35.28;24.67;;;6.30;72.80;;;;;;5119050;27;20188;-80
2021/03/10 08:42:00;;;;;;;28.98;21.30;;;6.20;72.60;;;;;;5123928;27;20192;-79
2021/03/10 08:44:28;;;;;;;23.95;18.05;;;6.20;71.50;;;;;;5133472;27;20203;-80
2021/03/10 08:46:57;;;;;;;27.63;19.50;;;6.20;71.50;;;;;;5128988;27;20642;-80
2021/03/10 08:49:26;;;;;;;28.95;20.02;;;6.10;70.70;;;;;;5121982;27;20248;-80
2021/03/10 08:52:04;;;;;;;28.10;19.33;;;6.10;71.70;;;;;;5122537;27;20200;-80
2021/03/10 08:54:31;;;;;;;23.38;16.85;;;6.10;72.40;;;;;;5129226;27;20278;-79
2021/03/10 08:56:58;;;;;;;22.35;16.77;;;6.00;72.20;;;;;;5129857;27;20202;-79
2021/03/10 08:59:34;;;;;;;25.27;17.85;;;6.00;72.40;;;;;;5131330;27;20184;-79
2021/03/10 09:02:02;;;;;;;26.77;18.73;;;6.00;72.70;;;;;;5131421;27;20297;-79
2021/03/10 09:04:29;;;;;;;25.88;16.70;;;6.00;73.20;;;;;;5131612;27;20222;-78
2021/03/10 09:06:57;;;;;;;26.58;17.27;;;6.10;73.70;;;;;;5125964;27;20230;-78
2021/03/10 09:09:25;;;;;;;23.00;16.15;;;6.20;73.70;;;;;;5129555;27;20225;-78
2021/03/10 09:11:53;;;;;;;25.42;16.70;;;6.30;73.60;;;;;;5127558;27;20199;-78
2021/03/10 09:14:20;;;;;;;21.63;18.15;;;6.40;73.70;;;;;;5129972;27;20211;-78
2021/03/10 09:16:54;;;;;;;23.88;15.48;;;6.40;73.70;;;;;;5129268;27;20191;-79
2021/03/10 09:19:32;;;;;;;22.80;17.17;;;6.50;73.00;;;;;;5125210;27;20290;-79
2021/03/10 09:22:24;;;;;;;25.30;17.10;;;6.50;71.80;;;;;;5126442;27;20196;-79
2021/03/10 09:24:54;;;;;;;21.30;15.40;;;6.70;73.00;;;;;;5125875;27;20191;-79
2021/03/10 09:27:23;;;;;;;21.45;15.40;;;6.70;71.80;;;;;;5129908;27;20199;-79
2021/03/10 09:29:50;;;;;;;27.98;20.38;;;6.70;71.00;;;;;;5129419;27;20242;-79
2021/03/10 09:32:17;;;;;;;23.98;17.00;;;6.70;70.30;;;;;;5124934;27;20184;-79
2021/03/10 09:34:48;;;;;;;22.90;16.30;;;6.70;71.30;;;;;;5128253;27;20537;-79
2021/03/10 09:37:15;;;;;;;19.38;14.90;;;6.70;71.10;;;;;;5123986;27;20193;-79
2021/03/10 09:39:47;;;;;;;26.10;17.83;;;6.60;70.60;;;;;;5128264;27;20519;-77
2021/03/10 09:42:14;;;;;;;23.52;17.40;;;6.70;70.90;;;;;;5127523;27;20279;-79
2021/03/10 09:44:45;;;;;;;21.55;16.02;;;6.70;71.00;;;;;;5127080;27;20204;-79
2021/03/10 09:47:17;;;;;;;31.70;17.98;;;6.70;71.00;;;;;;5127665;27;20184;-79
2021/03/10 09:49:47;;;;;;;24.45;17.08;;;6.80;71.50;;;;;;5127865;27;20232;-80
2021/03/10 09:52:14;;;;;;;24.92;15.48;;;6.90;71.90;;;;;;5125251;27;20208;-78
2021/03/10 09:54:51;;;;;;;25.25;18.00;;;7.10;72.00;;;;;;5124453;27;20198;-79
2021/03/10 09:57:22;;;;;;;24.17;16.88;;;7.40;72.00;;;;;;5125919;27;20184;-77
2021/03/10 09:59:49;;;;;;;21.20;16.30;;;8.30;74.50;;;;;;5124111;27;20520;-79
2021/03/10 10:02:15;;;;;;;19.75;15.35;;;9.00;71.70;;;;;;5124932;27;20199;-78
2021/03/10 10:04:43;;;;;;;20.77;15.98;;;9.90;70.60;;;;;;5125951;27;20280;-79
2021/03/10 10:07:12;;;;;;;20.75;16.23;;;11.10;65.90;;;;;;5123859;27;20192;-79
2021/03/10 10:09:39;;;;;;;21.17;17.00;;;13.30;59.80;;;;;;5124732;27;20224;-80
2021/03/10 10:12:07;;;;;;;18.77;15.82;;;15.70;54.70;;;;;;5122704;27;20596;-80
2021/03/10 10:14:34;;;;;;;18.05;14.98;;;17.50;47.80;;;;;;5123131;27;20198;-80
2021/03/10 10:17:00;;;;;;;17.30;14.90;;;18.10;43.60;;;;;;5119546;27;20585;-80
2021/03/10 10:19:27;;;;;;;18.47;14.57;;;18.40;39.40;;;;;;5119766;27;20432;-80
2021/03/10 10:21:54;;;;;;;18.50;15.27;;;18.30;38.60;;;;;;5118823;27;20438;-80
2021/03/10 10:24:21;;;;;;;15.43;13.33;;;18.30;38.80;;;;;;5117212;27;20442;-80
2021/03/10 10:26:48;;;;;;;16.47;14.40;;;18.20;36.90;;;;;;5125250;27;20473;-80
2021/03/10 10:29:15;;;;;;;15.90;14.23;;;17.60;36.00;;;;;;5120454;27;20505;-80
2021/03/10 10:31:42;;;;;;;17.00;14.37;;;17.00;36.50;;;;;;5118484;27;20460;-80
2021/03/10 10:34:08;;;;;;;13.80;12.30;;;16.40;35.80;;;;;;5120920;27;20448;-80
2021/03/10 10:36:35;;;;;;;16.63;13.70;;;16.00;37.20;;;;;;5115260;27;20520;-80
2021/03/10 10:39:02;;;;;;;15.70;13.40;;;15.40;37.80;;;;;;5120720;27;20496;-80
2021/03/10 10:41:29;;;;;;;16.25;14.40;;;15.00;38.60;;;;;;5114985;27;20896;-80
2021/03/10 10:43:56;;;;;;;18.25;14.05;;;14.50;39.00;;;;;;5114973;27;20311;-79
2021/03/10 10:46:22;;;;;;;17.30;14.63;;;14.20;38.90;;;;;;5121890;27;20192;-79
2021/03/10 10:48:50;;;;;;;16.83;14.68;;;13.90;40.00;;;;;;5122686;27;20220;-80
2021/03/10 10:51:19;;;;;;;14.75;12.25;;;14.00;42.60;;;;;;5118017;27;20282;-80
2021/03/10 10:53:45;;;;;;;16.73;12.98;;;14.80;39.50;;;;;;5121668;27;20196;-79
2021/03/10 10:56:12;;;;;;;16.52;12.90;;;14.90;39.40;;;;;;5120787;27;20207;-78
2021/03/10 10:58:39;;;;;;;19.17;14.90;;;14.80;39.70;;;;;;5133087;27;20551;-79
2021/03/10 11:01:06;;;;;;;24.60;15.13;;;14.90;39.70;;;;;;5131898;27;20187;-79
2021/03/10 11:03:33;;;;;;;14.13;12.63;;;15.00;39.70;;;;;;5133748;27;20232;-79
2021/03/10 11:06:05;;;;;;;19.67;11.52;;;15.30;38.80;;;;;;5133896;27;20217;-79
2021/03/10 11:08:32;;;;;;;13.43;10.90;;;15.50;38.60;;;;;;5133448;27;20196;-80
2021/03/10 11:10:58;;;;;;;14.77;12.70;;;15.40;36.50;;;;;;5133990;27;20192;-82
2021/03/10 11:13:25;;;;;;;14.63;11.67;;;15.20;37.60;;;;;;5133980;27;20188;-82
2021/03/10 11:15:53;;;;;;;13.00;11.40;;;15.20;38.10;;;;;;5133693;27;20440;-81
2021/03/10 11:18:19;;;;;;;14.87;12.73;;;15.10;37.90;;;;;;5133366;27;20429;-81
2021/03/10 11:20:46;;;;;;;15.02;11.63;;;15.20;38.80;;;;;;5133762;27;20438;-81
2021/03/10 11:23:12;;;;;;;17.42;13.98;;;15.10;38.90;;;;;;5133060;27;20196;-81
2021/03/10 11:25:39;;;;;;;15.90;12.97;;;15.10;37.20;;;;;;5132979;27;20192;-80
2021/03/10 11:28:06;;;;;;;15.47;12.90;;;15.20;37.30;;;;;;5133760;27;20450;-81
2021/03/10 11:30:32;;;;;;;15.77;11.88;;;15.30;37.70;;;;;;5132652;27;20481;-80
2021/03/10 11:33:00;;;;;;;17.60;12.80;;;15.90;36.50;;;;;;5133538;27;20617;-80
2021/03/10 11:35:26;;;;;;;15.40;12.20;;;16.00;35.90;;;;;;5133087;27;20437;-80
2021/03/10 11:37:53;;;;;;;14.27;12.30;;;15.80;34.50;;;;;;5132843;28;20446;-79
2021/03/10 11:40:20;;;;;;;15.53;12.93;;;15.50;34.30;;;;;;5132938;27;20520;-79
2021/03/10 11:42:47;;;;;;;14.73;13.13;;;15.10;33.60;;;;;;5133713;27;20479;-80
2021/03/10 11:45:15;;;;;;;14.23;12.65;;;14.70;34.20;;;;;;5133040;27;20546;-80
2021/03/10 11:47:41;;;;;;;15.50;12.70;;;14.80;36.80;;;;;;5133678;27;20195;-80
2021/03/10 11:50:10;;;;;;;13.33;11.17;;;15.60;37.10;;;;;;5132921;27;20824;-80
2021/03/10 11:52:36;;;;;;;16.30;13.47;;;16.30;35.40;;;;;;5133447;27;20513;-81
2021/03/10 11:55:03;;;;;;;13.53;12.17;;;16.50;33.00;;;;;;5136024;27;20489;-81
2021/03/10 11:57:30;;;;;;;17.90;12.67;;;16.40;33.70;;;;;;5137214;27;20440;-81
2021/03/10 11:59:57;;;;;;;17.47;12.80;;;16.20;34.00;;;;;;5136852;27;20430;-81
2021/03/10 12:02:24;;;;;;;15.60;11.83;;;16.70;36.80;;;;;;5136923;27;20437;-80
2021/03/10 12:04:53;;;;;;;17.77;13.23;;;18.70;37.00;;;;;;5096141;28;20435;-82
2021/03/10 12:07:23;;;;;;;16.97;13.37;;;22.20;31.60;;;;;;5096459;28;20478;-82
2021/03/10 12:09:53;;;;;;;13.40;11.47;;;22.90;27.90;;;;;;5096436;28;20474;-82
2021/03/10 12:12:22;;;;;;;12.63;11.33;;;23.00;24.30;;;;;;5095929;28;20438;-82
2021/03/10 12:14:55;;;;;;;14.67;12.13;;;23.90;28.20;;;;;;5095827;28;20442;-82
2021/03/10 12:17:22;;;;;;;12.93;11.27;;;25.90;25.30;;;;;;5096377;28;20446;-83
2021/03/10 12:19:55;;;;;;;12.50;10.47;;;27.10;22.10;;;;;;5095893;28;20442;-84
2021/03/10 12:22:28;;;;;;;13.07;10.63;;;26.00;21.00;;;;;;5096089;28;20439;-84
2021/03/10 12:24:55;;;;;;;13.63;9.63;;;24.50;21.00;;;;;;5095610;28;20450;-83
2021/03/10 12:27:27;;;;;;;16.83;11.70;;;23.20;21.10;;;;;;5096177;28;20439;-83
2021/03/10 12:29:55;;;;;;;14.93;13.07;;;22.00;21.60;;;;;;5095623;28;20486;-83
2021/03/10 12:32:27;;;;;;;11.40;10.20;;;21.00;22.70;;;;;;5096391;28;20451;-82
2021/03/10 12:34:54;;;;;;;13.97;11.10;;;20.20;23.10;;;;;;5095049;28;20447;-84
2021/03/10 12:37:27;;;;;;;13.20;10.70;;;19.60;23.30;;;;;;5095205;28;20454;-84
2021/03/10 12:39:54;;;;;;;13.10;11.70;;;19.00;24.80;;;;;;5095310;28;20497;-84
2021/03/10 12:42:30;;;;;;;13.00;9.53;;;18.90;25.50;;;;;;5095730;28;20439;-84
2021/03/10 12:44:58;;;;;;;12.40;10.30;;;18.30;24.70;;;;;;5095410;28;20499;-84
2021/03/10 12:47:28;;;;;;;11.17;9.13;;;17.50;25.10;;;;;;5095311;28;20477;-84